General Aviation Weather

Text Reports

Enter one or more of the following location identifiers separated by a space:

Zip Code, Four-Character ICAO or Three-Character IATA airport codes.

METAR - Aviation Routine Weather Report
KNDZ - Milton, Florida
Updated at 6:56 PM GMT on March 27, 2015 (1:56 PM CDT):
METAR KNDZ 271856Z 33016G24KT 10SM SCT250 20/02 A2994 RMK AO2 SLP125 T02000022
TAF - Terminal Area Forecast
KNDZ - Milton, Florida
Updated at 6:56 PM GMT on March 27, 2015 (1:56 PM CDT):
No TAF is currently available for this location.
Decoded:
No decoded TAF is available.
PIREP - Pilot Weather Report
KNDZ - Milton, Florida
Updated at 6:56 PM GMT on March 27, 2015 (1:56 PM CDT):
No PIREP is currently available for this location.
AIRMET - Airmens Meteorological Information
KNDZ - Milton, Florida
Updated at 6:56 PM GMT on March 27, 2015 (1:56 PM CDT):
No AIRMET is currently available for this location.
SIGMET - Significant Meteorological Information
KNDZ - Milton, Florida
Updated at 6:56 PM GMT on March 27, 2015 (1:56 PM CDT):
No SIGMET is currently available for this location.
NOTAM - Notice to Airmen
KNDZ - Milton, Florida
Updated at 6:56 PM GMT on March 27, 2015 (1:56 PM CDT):
No NOTAM is currently available for this location.
Forecast Area
KNDZ - Milton, Florida
Updated at 6:56 PM GMT on March 27, 2015 (1:56 PM CDT):
No NOTAM is currently available for this location.
Aviation Weather Maps